Kilbirnie, United Kingdom
Current Conditions -  °F | °C
As of 6:50 AM on Monday 22 Dec 2014 (Local Time) from EGPF Reporting Station
Light Rain Light Rain  
Wind Chill:   Ceiling: 4100
Heat Index:   Visibility: 6mi
Dew Point:   Wind: 12mph
Humidity: 93%   Direction: 230°SW
Pressure: 29.59"   Gusts: NA
Location:  55.75°N, 4.69°W
Report Text: EGPF 220650Z AUTO 23010KT 9999 -RA BKN041/// //////TCU 08/07 Q1002
Loading
Personal Weather Stations






























Interactive Weather Map New forecast layout! Learn more

10-Day Weather Forecast

Advertisements
Track Severe Weather on mobile